sensor_id;sensor_type;location;lat;lon;timestamp;P1;durP1;ratioP1;P2;durP2;ratioP2
7563;SDS011;3823;53.586;10.040;2022-11-12T00:02:18;22.30;;;14.05;;
7563;SDS011;3823;53.586;10.040;2022-11-12T00:04:44;27.27;;;16.80;;
7563;SDS011;3823;53.586;10.040;2022-11-12T00:07:09;19.45;;;13.55;;
7563;SDS011;3823;53.586;10.040;2022-11-12T00:09:35;22.40;;;13.68;;
7563;SDS011;3823;53.586;10.040;2022-11-12T00:12:00;21.95;;;14.20;;
7563;SDS011;3823;53.586;10.040;2022-11-12T00:14:26;20.02;;;13.02;;
7563;SDS011;3823;53.586;10.040;2022-11-12T00:16:51;22.92;;;13.43;;
7563;SDS011;3823;53.586;10.040;2022-11-12T00:19:17;17.15;;;12.65;;
7563;SDS011;3823;53.586;10.040;2022-11-12T00:21:42;20.20;;;13.88;;
7563;SDS011;3823;53.586;10.040;2022-11-12T00:24:08;18.88;;;12.75;;
7563;SDS011;3823;53.586;10.040;2022-11-12T00:26:33;19.35;;;13.52;;
7563;SDS011;3823;53.586;10.040;2022-11-12T00:28:59;21.45;;;12.80;;
7563;SDS011;3823;53.586;10.040;2022-11-12T00:31:24;22.30;;;13.10;;
7563;SDS011;3823;53.586;10.040;2022-11-12T00:33:50;15.45;;;11.65;;
7563;SDS011;3823;53.586;10.040;2022-11-12T00:36:16;19.25;;;13.00;;
7563;SDS011;3823;53.586;10.040;2022-11-12T00:38:41;18.17;;;12.25;;
7563;SDS011;3823;53.586;10.040;2022-11-12T00:41:07;20.02;;;12.70;;
7563;SDS011;3823;53.586;10.040;2022-11-12T00:43:32;18.95;;;11.70;;
7563;SDS011;3823;53.586;10.040;2022-11-12T00:45:58;13.90;;;10.65;;
7563;SDS011;3823;53.586;10.040;2022-11-12T00:48:23;17.40;;;11.60;;
7563;SDS011;3823;53.586;10.040;2022-11-12T00:50:49;20.77;;;10.75;;
7563;SDS011;3823;53.586;10.040;2022-11-12T00:53:15;18.77;;;11.57;;
7563;SDS011;3823;53.586;10.040;2022-11-12T00:55:40;19.52;;;12.50;;
7563;SDS011;3823;53.586;10.040;2022-11-12T00:58:06;15.90;;;11.57;;
7563;SDS011;3823;53.586;10.040;2022-11-12T01:00:31;14.05;;;10.82;;
7563;SDS011;3823;53.586;10.040;2022-11-12T01:02:57;14.30;;;9.98;;
7563;SDS011;3823;53.586;10.040;2022-11-12T01:05:22;20.17;;;14.05;;
7563;SDS011;3823;53.586;10.040;2022-11-12T01:07:48;14.80;;;10.15;;
7563;SDS011;3823;53.586;10.040;2022-11-12T01:10:13;25.27;;;11.18;;
7563;SDS011;3823;53.586;10.040;2022-11-12T01:12:39;15.40;;;10.10;;
7563;SDS011;3823;53.586;10.040;2022-11-12T01:15:05;17.63;;;10.52;;
7563;SDS011;3823;53.586;10.040;2022-11-12T01:17:31;11.02;;;9.20;;
7563;SDS011;3823;53.586;10.040;2022-11-12T01:19:57;14.20;;;10.10;;
7563;SDS011;3823;53.586;10.040;2022-11-12T01:22:23;17.92;;;10.45;;
7563;SDS011;3823;53.586;10.040;2022-11-12T01:24:49;13.20;;;9.90;;
7563;SDS011;3823;53.586;10.040;2022-11-12T01:27:14;14.73;;;9.68;;
7563;SDS011;3823;53.586;10.040;2022-11-12T01:29:40;14.23;;;10.18;;
7563;SDS011;3823;53.586;10.040;2022-11-12T01:32:06;15.32;;;9.32;;
7563;SDS011;3823;53.586;10.040;2022-11-12T01:34:31;12.75;;;9.88;;
7563;SDS011;3823;53.586;10.040;2022-11-12T01:36:57;20.58;;;10.65;;
7563;SDS011;3823;53.586;10.040;2022-11-12T01:39:23;12.25;;;9.68;;
7563;SDS011;3823;53.586;10.040;2022-11-12T01:41:48;14.82;;;10.07;;
7563;SDS011;3823;53.586;10.040;2022-11-12T01:44:16;15.02;;;9.52;;
7563;SDS011;3823;53.586;10.040;2022-11-12T01:52:01;13.93;;;10.98;;
7563;SDS011;3823;53.586;10.040;2022-11-12T01:54:35;12.85;;;9.88;;
7563;SDS011;3823;53.586;10.040;2022-11-12T01:57:01;17.00;;;9.30;;
7563;SDS011;3823;53.586;10.040;2022-11-12T01:59:28;13.15;;;9.32;;
7563;SDS011;3823;53.586;10.040;2022-11-12T02:01:58;19.33;;;10.25;;
7563;SDS011;3823;53.586;10.040;2022-11-12T02:04:24;14.48;;;10.43;;
7563;SDS011;3823;53.586;10.040;2022-11-12T02:06:51;14.85;;;9.20;;
7563;SDS011;3823;53.586;10.040;2022-11-12T02:09:19;14.35;;;9.77;;
7563;SDS011;3823;53.586;10.040;2022-11-12T02:11:45;13.98;;;9.55;;
7563;SDS011;3823;53.586;10.040;2022-11-12T02:14:11;12.90;;;9.85;;
7563;SDS011;3823;53.586;10.040;2022-11-12T02:16:39;13.00;;;9.02;;
7563;SDS011;3823;53.586;10.040;2022-11-12T02:19:07;12.55;;;9.85;;
7563;SDS011;3823;53.586;10.040;2022-11-12T02:21:34;14.77;;;10.65;;
7563;SDS011;3823;53.586;10.040;2022-11-12T02:26:31;13.10;;;9.80;;
7563;SDS011;3823;53.586;10.040;2022-11-12T02:28:59;13.70;;;10.63;;
7563;SDS011;3823;53.586;10.040;2022-11-12T02:31:25;13.40;;;10.68;;
7563;SDS011;3823;53.586;10.040;2022-11-12T02:33:51;16.92;;;9.70;;
7563;SDS011;3823;53.586;10.040;2022-11-12T02:36:17;13.65;;;10.90;;
7563;SDS011;3823;53.586;10.040;2022-11-12T02:38:42;18.05;;;11.02;;
7563;SDS011;3823;53.586;10.040;2022-11-12T02:41:08;18.52;;;11.25;;
7563;SDS011;3823;53.586;10.040;2022-11-12T02:43:33;13.38;;;10.50;;
7563;SDS011;3823;53.586;10.040;2022-11-12T02:45:59;16.98;;;11.43;;
7563;SDS011;3823;53.586;10.040;2022-11-12T02:48:24;15.35;;;11.32;;
7563;SDS011;3823;53.586;10.040;2022-11-12T02:50:50;16.10;;;11.55;;
7563;SDS011;3823;53.586;10.040;2022-11-12T02:53:16;15.38;;;11.63;;
7563;SDS011;3823;53.586;10.040;2022-11-12T02:55:41;15.30;;;10.82;;
7563;SDS011;3823;53.586;10.040;2022-11-12T02:58:07;13.23;;;9.50;;
7563;SDS011;3823;53.586;10.040;2022-11-12T03:00:33;15.05;;;10.85;;
7563;SDS011;3823;53.586;10.040;2022-11-12T03:02:58;20.52;;;11.70;;
7563;SDS011;3823;53.586;10.040;2022-11-12T03:05:28;17.20;;;11.23;;
7563;SDS011;3823;53.586;10.040;2022-11-12T03:07:59;17.27;;;11.38;;
7563;SDS011;3823;53.586;10.040;2022-11-12T03:10:29;13.32;;;9.93;;
7563;SDS011;3823;53.586;10.040;2022-11-12T03:12:56;13.52;;;10.98;;
7563;SDS011;3823;53.586;10.040;2022-11-12T03:15:22;13.45;;;11.02;;
7563;SDS011;3823;53.586;10.040;2022-11-12T03:17:48;20.35;;;12.23;;
7563;SDS011;3823;53.586;10.040;2022-11-12T03:20:14;17.77;;;11.45;;
7563;SDS011;3823;53.586;10.040;2022-11-12T03:22:40;16.00;;;11.85;;
7563;SDS011;3823;53.586;10.040;2022-11-12T03:25:06;13.52;;;10.18;;
7563;SDS011;3823;53.586;10.040;2022-11-12T03:27:32;19.13;;;10.73;;
7563;SDS011;3823;53.586;10.040;2022-11-12T03:29:58;20.67;;;11.23;;
7563;SDS011;3823;53.586;10.040;2022-11-12T03:32:24;16.65;;;11.27;;
7563;SDS011;3823;53.586;10.040;2022-11-12T03:34:49;19.13;;;12.27;;
7563;SDS011;3823;53.586;10.040;2022-11-12T03:37:15;15.35;;;11.48;;
7563;SDS011;3823;53.586;10.040;2022-11-12T03:39:41;15.25;;;9.35;;
7563;SDS011;3823;53.586;10.040;2022-11-12T03:42:06;19.17;;;11.95;;
7563;SDS011;3823;53.586;10.040;2022-11-12T03:44:32;15.57;;;10.30;;
7563;SDS011;3823;53.586;10.040;2022-11-12T03:46:58;16.52;;;11.10;;
7563;SDS011;3823;53.586;10.040;2022-11-12T03:49:23;12.10;;;10.35;;
7563;SDS011;3823;53.586;10.040;2022-11-12T03:51:49;15.90;;;11.40;;
7563;SDS011;3823;53.586;10.040;2022-11-12T03:54:14;17.15;;;11.23;;
7563;SDS011;3823;53.586;10.040;2022-11-12T03:56:40;14.82;;;10.77;;
7563;SDS011;3823;53.586;10.040;2022-11-12T03:59:05;15.85;;;10.88;;
7563;SDS011;3823;53.586;10.040;2022-11-12T04:01:31;16.40;;;12.20;;
7563;SDS011;3823;53.586;10.040;2022-11-12T04:03:57;15.70;;;10.70;;
7563;SDS011;3823;53.586;10.040;2022-11-12T04:06:22;14.73;;;11.18;;
7563;SDS011;3823;53.586;10.040;2022-11-12T04:09:06;14.95;;;10.45;;
7563;SDS011;3823;53.586;10.040;2022-11-12T04:11:32;15.48;;;10.93;;
7563;SDS011;3823;53.586;10.040;2022-11-12T04:13:57;17.13;;;11.50;;
7563;SDS011;3823;53.586;10.040;2022-11-12T04:16:23;15.85;;;10.43;;
7563;SDS011;3823;53.586;10.040;2022-11-12T04:19:09;15.07;;;10.32;;
7563;SDS011;3823;53.586;10.040;2022-11-12T04:21:58;14.68;;;10.98;;
7563;SDS011;3823;53.586;10.040;2022-11-12T04:24:35;14.20;;;11.77;;
7563;SDS011;3823;53.586;10.040;2022-11-12T04:27:31;18.48;;;10.52;;
7563;SDS011;3823;53.586;10.040;2022-11-12T04:29:58;17.15;;;10.75;;
7563;SDS011;3823;53.586;10.040;2022-11-12T04:32:52;15.48;;;11.02;;
7563;SDS011;3823;53.586;10.040;2022-11-12T04:35:19;15.27;;;11.40;;
7563;SDS011;3823;53.586;10.040;2022-11-12T04:37:46;21.40;;;12.02;;
7563;SDS011;3823;53.586;10.040;2022-11-12T04:40:22;15.70;;;10.57;;
7563;SDS011;3823;53.586;10.040;2022-11-12T04:43:10;13.02;;;10.40;;
7563;SDS011;3823;53.586;10.040;2022-11-12T04:45:55;17.02;;;10.48;;
7563;SDS011;3823;53.586;10.040;2022-11-12T04:48:22;15.85;;;11.05;;
7563;SDS011;3823;53.586;10.040;2022-11-12T04:50:49;15.65;;;10.82;;
7563;SDS011;3823;53.586;10.040;2022-11-12T04:53:19;20.85;;;11.63;;
7563;SDS011;3823;53.586;10.040;2022-11-12T04:55:48;17.60;;;11.95;;
7563;SDS011;3823;53.586;10.040;2022-11-12T04:58:14;17.27;;;11.27;;
7563;SDS011;3823;53.586;10.040;2022-11-12T05:00:40;18.05;;;11.85;;
7563;SDS011;3823;53.586;10.040;2022-11-12T05:03:05;16.23;;;12.40;;
7563;SDS011;3823;53.586;10.040;2022-11-12T05:05:31;16.20;;;11.45;;
7563;SDS011;3823;53.586;10.040;2022-11-12T05:07:58;18.50;;;11.82;;
7563;SDS011;3823;53.586;10.040;2022-11-12T05:10:25;20.75;;;11.77;;
7563;SDS011;3823;53.586;10.040;2022-11-12T05:12:50;19.42;;;13.25;;
7563;SDS011;3823;53.586;10.040;2022-11-12T05:15:16;17.55;;;12.15;;
7563;SDS011;3823;53.586;10.040;2022-11-12T05:17:42;19.13;;;12.13;;
7563;SDS011;3823;53.586;10.040;2022-11-12T05:20:08;23.15;;;14.63;;
7563;SDS011;3823;53.586;10.040;2022-11-12T05:22:35;16.38;;;12.48;;
7563;SDS011;3823;53.586;10.040;2022-11-12T05:25:01;18.10;;;12.90;;
7563;SDS011;3823;53.586;10.040;2022-11-12T05:27:27;16.05;;;12.60;;
7563;SDS011;3823;53.586;10.040;2022-11-12T05:29:52;17.92;;;13.80;;
7563;SDS011;3823;53.586;10.040;2022-11-12T05:32:18;17.60;;;12.65;;
7563;SDS011;3823;53.586;10.040;2022-11-12T05:34:43;22.33;;;13.52;;
7563;SDS011;3823;53.586;10.040;2022-11-12T05:37:10;21.48;;;12.82;;
7563;SDS011;3823;53.586;10.040;2022-11-12T05:39:39;20.42;;;13.35;;
7563;SDS011;3823;53.586;10.040;2022-11-12T05:42:04;15.13;;;12.30;;
7563;SDS011;3823;53.586;10.040;2022-11-12T05:44:30;17.15;;;11.75;;
7563;SDS011;3823;53.586;10.040;2022-11-12T05:46:55;21.63;;;13.27;;
7563;SDS011;3823;53.586;10.040;2022-11-12T05:49:21;18.42;;;11.30;;
7563;SDS011;3823;53.586;10.040;2022-11-12T05:51:47;25.98;;;13.48;;
7563;SDS011;3823;53.586;10.040;2022-11-12T05:54:12;15.77;;;11.82;;
7563;SDS011;3823;53.586;10.040;2022-11-12T05:56:38;19.35;;;11.30;;
7563;SDS011;3823;53.586;10.040;2022-11-12T05:59:04;18.55;;;12.70;;
7563;SDS011;3823;53.586;10.040;2022-11-12T06:01:34;17.50;;;12.60;;
7563;SDS011;3823;53.586;10.040;2022-11-12T06:04:07;17.67;;;12.38;;
7563;SDS011;3823;53.586;10.040;2022-11-12T06:06:37;19.27;;;13.63;;
7563;SDS011;3823;53.586;10.040;2022-11-12T06:09:03;17.27;;;12.95;;
7563;SDS011;3823;53.586;10.040;2022-11-12T06:11:28;16.75;;;12.63;;
7563;SDS011;3823;53.586;10.040;2022-11-12T06:13:54;17.73;;;12.45;;
7563;SDS011;3823;53.586;10.040;2022-11-12T06:16:19;17.08;;;12.70;;
7563;SDS011;3823;53.586;10.040;2022-11-12T06:18:45;16.35;;;12.75;;
7563;SDS011;3823;53.586;10.040;2022-11-12T06:21:10;21.60;;;12.75;;
7563;SDS011;3823;53.586;10.040;2022-11-12T06:23:51;19.50;;;13.52;;
7563;SDS011;3823;53.586;10.040;2022-11-12T06:26:21;16.92;;;11.93;;
7563;SDS011;3823;53.586;10.040;2022-11-12T06:28:48;19.40;;;13.02;;
7563;SDS011;3823;53.586;10.040;2022-11-12T06:31:15;16.75;;;12.88;;
7563;SDS011;3823;53.586;10.040;2022-11-12T06:33:41;18.10;;;13.65;;
7563;SDS011;3823;53.586;10.040;2022-11-12T06:36:07;20.33;;;14.20;;
7563;SDS011;3823;53.586;10.040;2022-11-12T06:38:36;15.55;;;12.50;;
7563;SDS011;3823;53.586;10.040;2022-11-12T06:41:03;18.70;;;13.77;;
7563;SDS011;3823;53.586;10.040;2022-11-12T06:43:31;22.02;;;12.88;;
7563;SDS011;3823;53.586;10.040;2022-11-12T06:45:58;18.58;;;13.43;;
7563;SDS011;3823;53.586;10.040;2022-11-12T06:48:25;17.40;;;12.93;;
7563;SDS011;3823;53.586;10.040;2022-11-12T06:50:51;26.13;;;14.30;;
7563;SDS011;3823;53.586;10.040;2022-11-12T06:53:16;18.92;;;12.52;;
7563;SDS011;3823;53.586;10.040;2022-11-12T06:55:42;23.10;;;13.23;;
7563;SDS011;3823;53.586;10.040;2022-11-12T06:58:07;23.23;;;14.35;;
7563;SDS011;3823;53.586;10.040;2022-11-12T07:00:33;22.02;;;14.30;;
7563;SDS011;3823;53.586;10.040;2022-11-12T07:02:58;18.80;;;12.95;;
7563;SDS011;3823;53.586;10.040;2022-11-12T07:05:24;18.02;;;12.10;;
7563;SDS011;3823;53.586;10.040;2022-11-12T07:07:49;19.20;;;12.30;;
7563;SDS011;3823;53.586;10.040;2022-11-12T07:10:15;21.75;;;13.70;;
7563;SDS011;3823;53.586;10.040;2022-11-12T07:12:41;18.98;;;14.00;;
7563;SDS011;3823;53.586;10.040;2022-11-12T07:15:06;23.83;;;13.48;;
7563;SDS011;3823;53.586;10.040;2022-11-12T07:17:32;17.88;;;13.07;;
7563;SDS011;3823;53.586;10.040;2022-11-12T07:19:58;16.30;;;12.65;;
7563;SDS011;3823;53.586;10.040;2022-11-12T07:22:25;18.67;;;12.63;;
7563;SDS011;3823;53.586;10.040;2022-11-12T07:24:50;17.10;;;12.63;;
7563;SDS011;3823;53.586;10.040;2022-11-12T07:27:16;16.33;;;9.90;;
7563;SDS011;3823;53.586;10.040;2022-11-12T07:29:41;15.63;;;11.27;;
7563;SDS011;3823;53.586;10.040;2022-11-12T07:32:07;34.72;;;13.65;;
7563;SDS011;3823;53.586;10.040;2022-11-12T07:34:32;17.65;;;11.23;;
7563;SDS011;3823;53.586;10.040;2022-11-12T07:36:58;17.45;;;12.00;;
7563;SDS011;3823;53.586;10.040;2022-11-12T07:39:23;15.52;;;11.05;;
7563;SDS011;3823;53.586;10.040;2022-11-12T07:41:49;16.25;;;10.23;;
7563;SDS011;3823;53.586;10.040;2022-11-12T07:44:15;17.15;;;10.23;;
7563;SDS011;3823;53.586;10.040;2022-11-12T07:46:41;15.50;;;10.85;;
7563;SDS011;3823;53.586;10.040;2022-11-12T07:49:06;11.55;;;9.63;;
7563;SDS011;3823;53.586;10.040;2022-11-12T07:51:32;20.10;;;10.75;;
7563;SDS011;3823;53.586;10.040;2022-11-12T07:53:57;12.15;;;10.82;;
7563;SDS011;3823;53.586;10.040;2022-11-12T07:56:26;14.05;;;9.10;;
7563;SDS011;3823;53.586;10.040;2022-11-12T07:58:52;11.57;;;9.55;;
7563;SDS011;3823;53.586;10.040;2022-11-12T08:01:29;14.50;;;10.10;;
7563;SDS011;3823;53.586;10.040;2022-11-12T08:03:56;13.20;;;9.20;;
7563;SDS011;3823;53.586;10.040;2022-11-12T08:06:26;14.23;;;9.98;;
7563;SDS011;3823;53.586;10.040;2022-11-12T08:08:52;16.10;;;9.63;;
7563;SDS011;3823;53.586;10.040;2022-11-12T08:11:19;11.65;;;9.07;;
7563;SDS011;3823;53.586;10.040;2022-11-12T08:13:45;14.68;;;9.80;;
7563;SDS011;3823;53.586;10.040;2022-11-12T08:16:10;12.18;;;9.77;;
7563;SDS011;3823;53.586;10.040;2022-11-12T08:18:36;13.63;;;9.70;;
7563;SDS011;3823;53.586;10.040;2022-11-12T08:21:02;12.00;;;10.73;;
7563;SDS011;3823;53.586;10.040;2022-11-12T08:23:29;12.80;;;9.57;;
7563;SDS011;3823;53.586;10.040;2022-11-12T08:25:59;18.45;;;11.55;;
7563;SDS011;3823;53.586;10.040;2022-11-12T08:28:27;11.98;;;9.93;;
7563;SDS011;3823;53.586;10.040;2022-11-12T08:30:53;14.95;;;9.85;;
7563;SDS011;3823;53.586;10.040;2022-11-12T08:33:19;10.73;;;8.95;;
7563;SDS011;3823;53.586;10.040;2022-11-12T08:35:45;12.43;;;9.80;;
7563;SDS011;3823;53.586;10.040;2022-11-12T08:38:10;15.60;;;10.27;;
7563;SDS011;3823;53.586;10.040;2022-11-12T08:40:38;12.23;;;9.32;;
7563;SDS011;3823;53.586;10.040;2022-11-12T08:43:08;10.63;;;9.43;;
7563;SDS011;3823;53.586;10.040;2022-11-12T08:45:35;12.75;;;9.48;;
7563;SDS011;3823;53.586;10.040;2022-11-12T08:48:04;14.27;;;11.38;;
7563;SDS011;3823;53.586;10.040;2022-11-12T08:50:32;11.18;;;9.00;;
7563;SDS011;3823;53.586;10.040;2022-11-12T08:53:09;11.63;;;9.43;;
7563;SDS011;3823;53.586;10.040;2022-11-12T08:55:36;13.00;;;8.77;;
7563;SDS011;3823;53.586;10.040;2022-11-12T08:58:02;10.23;;;8.48;;
7563;SDS011;3823;53.586;10.040;2022-11-12T09:00:29;11.80;;;9.07;;
7563;SDS011;3823;53.586;10.040;2022-11-12T09:03:00;11.25;;;8.65;;
7563;SDS011;3823;53.586;10.040;2022-11-12T09:05:27;14.38;;;9.10;;
7563;SDS011;3823;53.586;10.040;2022-11-12T09:07:59;18.40;;;8.55;;
7563;SDS011;3823;53.586;10.040;2022-11-12T09:10:29;9.43;;;8.10;;
7563;SDS011;3823;53.586;10.040;2022-11-12T09:12:56;11.52;;;9.25;;
7563;SDS011;3823;53.586;10.040;2022-11-12T09:15:22;9.50;;;8.07;;
7563;SDS011;3823;53.586;10.040;2022-11-12T09:17:53;12.00;;;8.80;;
7563;SDS011;3823;53.586;10.040;2022-11-12T09:20:20;12.02;;;7.60;;
7563;SDS011;3823;53.586;10.040;2022-11-12T09:22:46;10.90;;;8.50;;
7563;SDS011;3823;53.586;10.040;2022-11-12T09:25:11;12.60;;;10.55;;
7563;SDS011;3823;53.586;10.040;2022-11-12T09:27:37;9.30;;;7.75;;
7563;SDS011;3823;53.586;10.040;2022-11-12T09:30:03;11.75;;;9.02;;
7563;SDS011;3823;53.586;10.040;2022-11-12T09:32:28;10.27;;;8.18;;
7563;SDS011;3823;53.586;10.040;2022-11-12T09:34:54;11.63;;;9.60;;
7563;SDS011;3823;53.586;10.040;2022-11-12T09:37:19;13.93;;;8.93;;
7563;SDS011;3823;53.586;10.040;2022-11-12T09:39:45;13.30;;;8.93;;
7563;SDS011;3823;53.586;10.040;2022-11-12T09:42:18;15.98;;;9.50;;
7563;SDS011;3823;53.586;10.040;2022-11-12T09:45:00;12.15;;;8.63;;
7563;SDS011;3823;53.586;10.040;2022-11-12T09:47:39;10.52;;;8.52;;
7563;SDS011;3823;53.586;10.040;2022-11-12T09:52:40;9.38;;;8.45;;
7563;SDS011;3823;53.586;10.040;2022-11-12T09:55:28;14.07;;;9.20;;
7563;SDS011;3823;53.586;10.040;2022-11-12T09:57:56;17.83;;;10.95;;
7563;SDS011;3823;53.586;10.040;2022-11-12T10:00:22;18.20;;;9.32;;
7563;SDS011;3823;53.586;10.040;2022-11-12T10:03:01;15.77;;;8.55;;
7563;SDS011;3823;53.586;10.040;2022-11-12T10:10:46;12.85;;;8.80;;
7563;SDS011;3823;53.586;10.040;2022-11-12T10:13:24;12.48;;;8.82;;
7563;SDS011;3823;53.586;10.040;2022-11-12T10:16:29;10.02;;;8.23;;
7563;SDS011;3823;53.586;10.040;2022-11-12T10:19:25;13.57;;;8.90;;
7563;SDS011;3823;53.586;10.040;2022-11-12T10:22:05;12.88;;;8.93;;
7563;SDS011;3823;53.586;10.040;2022-11-12T10:24:36;14.57;;;9.38;;
7563;SDS011;3823;53.586;10.040;2022-11-12T10:27:23;13.10;;;9.35;;
7563;SDS011;3823;53.586;10.040;2022-11-12T10:29:58;15.15;;;10.13;;
7563;SDS011;3823;53.586;10.040;2022-11-12T10:32:39;12.23;;;8.35;;
7563;SDS011;3823;53.586;10.040;2022-11-12T10:35:07;12.60;;;8.90;;
7563;SDS011;3823;53.586;10.040;2022-11-12T10:37:38;10.95;;;9.00;;
7563;SDS011;3823;53.586;10.040;2022-11-12T10:45:25;13.13;;;8.70;;
7563;SDS011;3823;53.586;10.040;2022-11-12T10:47:51;13.02;;;8.82;;
7563;SDS011;3823;53.586;10.040;2022-11-12T10:50:18;17.23;;;9.00;;
7563;SDS011;3823;53.586;10.040;2022-11-12T10:52:54;11.02;;;8.73;;
7563;SDS011;3823;53.586;10.040;2022-11-12T11:00:31;12.63;;;8.85;;
7563;SDS011;3823;53.586;10.040;2022-11-12T11:02:58;22.60;;;8.32;;
7563;SDS011;3823;53.586;10.040;2022-11-12T11:05:33;11.88;;;8.02;;
7563;SDS011;3823;53.586;10.040;2022-11-12T11:08:02;16.17;;;10.18;;
7563;SDS011;3823;53.586;10.040;2022-11-12T11:10:30;15.77;;;9.38;;
7563;SDS011;3823;53.586;10.040;2022-11-12T11:13:18;11.15;;;8.50;;
7563;SDS011;3823;53.586;10.040;2022-11-12T11:16:03;11.15;;;8.15;;
7563;SDS011;3823;53.586;10.040;2022-11-12T11:18:34;12.52;;;9.88;;
7563;SDS011;3823;53.586;10.040;2022-11-12T11:31:54;9.38;;;7.75;;
7563;SDS011;3823;53.586;10.040;2022-11-12T11:37:00;13.52;;;8.32;;
7563;SDS011;3823;53.586;10.040;2022-11-12T11:39:41;9.70;;;8.52;;
7563;SDS011;3823;53.586;10.040;2022-11-12T11:42:39;10.50;;;8.20;;
7563;SDS011;3823;53.586;10.040;2022-11-12T11:45:22;12.27;;;8.18;;
7563;SDS011;3823;53.586;10.040;2022-11-12T11:54:26;11.13;;;8.00;;
7563;SDS011;3823;53.586;10.040;2022-11-12T11:57:19;10.50;;;7.45;;
7563;SDS011;3823;53.586;10.040;2022-11-12T12:08:11;10.18;;;8.88;;
7563;SDS011;3823;53.586;10.040;2022-11-12T12:10:46;13.60;;;8.15;;
7563;SDS011;3823;53.586;10.040;2022-11-12T12:13:49;11.30;;;8.80;;
7563;SDS011;3823;53.586;10.040;2022-11-12T12:16:41;15.40;;;9.30;;
7563;SDS011;3823;53.586;10.040;2022-11-12T12:21:57;15.50;;;10.38;;
7563;SDS011;3823;53.586;10.040;2022-11-12T12:24:26;16.63;;;9.23;;
7563;SDS011;3823;53.586;10.040;2022-11-12T12:27:01;13.85;;;9.48;;
7563;SDS011;3823;53.586;10.040;2022-11-12T12:29:55;13.25;;;8.93;;
7563;SDS011;3823;53.586;10.040;2022-11-12T12:32:35;13.20;;;9.20;;
7563;SDS011;3823;53.586;10.040;2022-11-12T12:37:44;14.25;;;10.30;;
7563;SDS011;3823;53.586;10.040;2022-11-12T12:40:18;12.07;;;9.65;;
7563;SDS011;3823;53.586;10.040;2022-11-12T12:42:56;24.20;;;9.38;;
7563;SDS011;3823;53.586;10.040;2022-11-12T12:45:44;16.00;;;10.38;;
7563;SDS011;3823;53.586;10.040;2022-11-12T12:48:15;14.55;;;8.73;;
7563;SDS011;3823;53.586;10.040;2022-11-12T12:50:44;11.27;;;9.40;;
7563;SDS011;3823;53.586;10.040;2022-11-12T12:58:29;16.02;;;9.10;;
7563;SDS011;3823;53.586;10.040;2022-11-12T13:01:00;12.07;;;8.95;;
7563;SDS011;3823;53.586;10.040;2022-11-12T13:08:49;14.93;;;9.10;;
7563;SDS011;3823;53.586;10.040;2022-11-12T13:19:26;9.52;;;8.45;;
7563;SDS011;3823;53.586;10.040;2022-11-12T13:22:32;12.52;;;9.13;;
7563;SDS011;3823;53.586;10.040;2022-11-12T13:37:48;12.45;;;8.50;;
7563;SDS011;3823;53.586;10.040;2022-11-12T13:48:43;10.45;;;8.73;;
7563;SDS011;3823;53.586;10.040;2022-11-12T13:51:16;11.75;;;8.50;;
7563;SDS011;3823;53.586;10.040;2022-11-12T13:53:46;11.48;;;9.55;;
7563;SDS011;3823;53.586;10.040;2022-11-12T13:56:22;12.45;;;8.68;;
7563;SDS011;3823;53.586;10.040;2022-11-12T13:58:52;12.45;;;8.88;;
7563;SDS011;3823;53.586;10.040;2022-11-12T14:01:18;12.30;;;9.25;;
7563;SDS011;3823;53.586;10.040;2022-11-12T14:03:47;12.95;;;9.07;;
7563;SDS011;3823;53.586;10.040;2022-11-12T14:06:16;11.18;;;8.80;;
7563;SDS011;3823;53.586;10.040;2022-11-12T14:09:07;14.88;;;9.48;;
7563;SDS011;3823;53.586;10.040;2022-11-12T14:11:55;13.90;;;9.52;;
7563;SDS011;3823;53.586;10.040;2022-11-12T14:17:30;13.68;;;8.43;;
7563;SDS011;3823;53.586;10.040;2022-11-12T14:20:12;15.27;;;9.38;;
7563;SDS011;3823;53.586;10.040;2022-11-12T14:23:02;12.20;;;8.40;;
7563;SDS011;3823;53.586;10.040;2022-11-12T14:25:49;10.15;;;7.30;;
7563;SDS011;3823;53.586;10.040;2022-11-12T14:30:46;7.60;;;6.82;;
7563;SDS011;3823;53.586;10.040;2022-11-12T14:33:16;12.00;;;7.97;;
7563;SDS011;3823;53.586;10.040;2022-11-12T14:35:45;18.77;;;9.05;;
7563;SDS011;3823;53.586;10.040;2022-11-12T14:38:15;13.85;;;8.25;;
7563;SDS011;3823;53.586;10.040;2022-11-12T14:46:05;9.85;;;7.18;;
7563;SDS011;3823;53.586;10.040;2022-11-12T14:48:49;8.82;;;7.93;;
7563;SDS011;3823;53.586;10.040;2022-11-12T14:51:17;10.18;;;7.70;;
7563;SDS011;3823;53.586;10.040;2022-11-12T14:53:48;9.85;;;7.85;;
7563;SDS011;3823;53.586;10.040;2022-11-12T14:56:53;10.95;;;8.02;;
7563;SDS011;3823;53.586;10.040;2022-11-12T14:59:12;15.00;;;8.57;;
7563;SDS011;3823;53.586;10.040;2022-11-12T15:01:40;13.88;;;8.70;;
7563;SDS011;3823;53.586;10.040;2022-11-12T15:10:37;11.68;;;8.68;;
7563;SDS011;3823;53.586;10.040;2022-11-12T15:13:10;12.77;;;8.95;;
7563;SDS011;3823;53.586;10.040;2022-11-12T15:15:38;11.85;;;10.05;;
7563;SDS011;3823;53.586;10.040;2022-11-12T15:18:20;14.50;;;10.07;;
7563;SDS011;3823;53.586;10.040;2022-11-12T15:21:02;21.50;;;10.15;;
7563;SDS011;3823;53.586;10.040;2022-11-12T15:23:35;10.73;;;8.60;;
7563;SDS011;3823;53.586;10.040;2022-11-12T15:26:01;12.35;;;9.48;;
7563;SDS011;3823;53.586;10.040;2022-11-12T15:28:27;13.40;;;9.23;;
7563;SDS011;3823;53.586;10.040;2022-11-12T15:31:00;13.13;;;9.80;;
7563;SDS011;3823;53.586;10.040;2022-11-12T15:33:29;18.70;;;11.68;;
7563;SDS011;3823;53.586;10.040;2022-11-12T15:35:58;18.67;;;10.70;;
7563;SDS011;3823;53.586;10.040;2022-11-12T15:38:31;12.68;;;11.07;;
7563;SDS011;3823;53.586;10.040;2022-11-12T15:41:02;13.32;;;11.18;;
7563;SDS011;3823;53.586;10.040;2022-11-12T15:43:33;14.40;;;10.27;;
7563;SDS011;3823;53.586;10.040;2022-11-12T15:46:00;16.23;;;10.35;;
7563;SDS011;3823;53.586;10.040;2022-11-12T15:48:26;14.77;;;10.15;;
7563;SDS011;3823;53.586;10.040;2022-11-12T15:50:51;13.75;;;10.52;;
7563;SDS011;3823;53.586;10.040;2022-11-12T15:53:18;17.85;;;12.68;;
7563;SDS011;3823;53.586;10.040;2022-11-12T15:55:44;18.48;;;12.65;;
7563;SDS011;3823;53.586;10.040;2022-11-12T15:58:21;25.65;;;14.10;;
7563;SDS011;3823;53.586;10.040;2022-11-12T16:00:55;21.10;;;13.23;;
7563;SDS011;3823;53.586;10.040;2022-11-12T16:03:20;28.98;;;14.80;;
7563;SDS011;3823;53.586;10.040;2022-11-12T16:05:46;26.85;;;16.17;;
7563;SDS011;3823;53.586;10.040;2022-11-12T16:08:12;27.60;;;17.08;;
7563;SDS011;3823;53.586;10.040;2022-11-12T16:10:38;34.83;;;20.50;;
7563;SDS011;3823;53.586;10.040;2022-11-12T16:13:05;26.10;;;18.15;;
7563;SDS011;3823;53.586;10.040;2022-11-12T16:15:35;25.85;;;17.02;;
7563;SDS011;3823;53.586;10.040;2022-11-12T16:18:01;27.75;;;17.25;;
7563;SDS011;3823;53.586;10.040;2022-11-12T16:20:31;23.25;;;16.08;;
7563;SDS011;3823;53.586;10.040;2022-11-12T16:22:58;31.10;;;17.83;;
7563;SDS011;3823;53.586;10.040;2022-11-12T16:25:29;25.10;;;16.65;;
7563;SDS011;3823;53.586;10.040;2022-11-12T16:27:56;21.50;;;14.05;;
7563;SDS011;3823;53.586;10.040;2022-11-12T16:30:23;22.75;;;15.18;;
7563;SDS011;3823;53.586;10.040;2022-11-12T16:32:50;26.25;;;16.25;;
7563;SDS011;3823;53.586;10.040;2022-11-12T16:35:16;20.48;;;15.55;;
7563;SDS011;3823;53.586;10.040;2022-11-12T16:37:43;19.90;;;15.52;;
7563;SDS011;3823;53.586;10.040;2022-11-12T16:40:14;21.13;;;14.95;;
7563;SDS011;3823;53.586;10.040;2022-11-12T16:42:42;22.88;;;15.13;;
7563;SDS011;3823;53.586;10.040;2022-11-12T16:45:19;21.40;;;14.27;;
7563;SDS011;3823;53.586;10.040;2022-11-12T16:47:47;23.35;;;15.13;;
7563;SDS011;3823;53.586;10.040;2022-11-12T16:50:15;23.63;;;13.73;;
7563;SDS011;3823;53.586;10.040;2022-11-12T16:52:43;23.95;;;14.25;;